Главная страница
METAR-TAF:

METAR-TAF

Аэропорты :

Оушен округ, Нью-Джерси, США

широта: 39-55-39N, долгота: 074-17-33W, высота над уровнем моря: 25 м

Текущие метеонаблюдения

Эта сводка был подготовлена 46 минут назад, в 00:56 UTC
Ветер 3 Узел от южный-юго-западный
Температура 11°C
Влажность 82%
Давление 1017 hPa
Видимость: 16.1 км
ясное небо

METAR: KMJX 200056Z AUTO 20003KT 10SM CLR 11/08 A3003 RMK AO2 SLP176 T01060078

Время: 21:42 (01:42 UTC)


TAF: отсутствует

Метеонаблюдения и прогнозы для более 4000 аэропортов (сводки METAR и TAF).

Имеющиеся станции представлены на карте желтыми и красными точками.

Чтобы увидеть название станции, наведите на нее мышь.

Затем щелкните, чтобы увидеть метеонаблюдения и метеопрогнозы.

Управление картой: чтобы увеличить масштаб, щелкните зеленые кнопки с черным крестиком; чтобы уменьшить масштаб, щелкните зеленую кнопку с тире; для просмотра соседних карт щелкайте зеленые стрелки.


METAR-TAF: